sensor_id;sensor_type;location;lat;lon;timestamp;temperature;humidity
14192;DHT22;7177;48.572;7.838;2024-02-16T00:00:02;10.50;99.90
14192;DHT22;7177;48.572;7.838;2024-02-16T00:02:28;10.50;99.90
14192;DHT22;7177;48.572;7.838;2024-02-16T00:04:54;10.50;99.90
14192;DHT22;7177;48.572;7.838;2024-02-16T00:07:20;10.50;99.90
14192;DHT22;7177;48.572;7.838;2024-02-16T00:09:45;10.50;99.90
14192;DHT22;7177;48.572;7.838;2024-02-16T00:12:11;10.50;99.90
14192;DHT22;7177;48.572;7.838;2024-02-16T00:14:37;10.50;99.90
14192;DHT22;7177;48.572;7.838;2024-02-16T00:17:02;10.50;99.90
14192;DHT22;7177;48.572;7.838;2024-02-16T00:19:29;10.40;99.90
14192;DHT22;7177;48.572;7.838;2024-02-16T00:21:55;10.40;99.90
14192;DHT22;7177;48.572;7.838;2024-02-16T00:24:21;10.40;99.90
14192;DHT22;7177;48.572;7.838;2024-02-16T00:26:46;10.40;99.90
14192;DHT22;7177;48.572;7.838;2024-02-16T00:29:12;10.50;99.90
14192;DHT22;7177;48.572;7.838;2024-02-16T00:31:37;10.50;99.90
14192;DHT22;7177;48.572;7.838;2024-02-16T00:34:03;10.50;99.90
14192;DHT22;7177;48.572;7.838;2024-02-16T00:36:29;10.50;99.90
14192;DHT22;7177;48.572;7.838;2024-02-16T00:38:56;10.50;99.90
14192;DHT22;7177;48.572;7.838;2024-02-16T00:41:22;10.50;99.90
14192;DHT22;7177;48.572;7.838;2024-02-16T00:43:49;10.50;99.90
14192;DHT22;7177;48.572;7.838;2024-02-16T00:46:14;10.50;99.90
14192;DHT22;7177;48.572;7.838;2024-02-16T00:48:40;10.50;99.90
14192;DHT22;7177;48.572;7.838;2024-02-16T00:51:06;10.50;99.90
14192;DHT22;7177;48.572;7.838;2024-02-16T00:53:32;10.50;99.90
14192;DHT22;7177;48.572;7.838;2024-02-16T00:55:57;10.50;99.90
14192;DHT22;7177;48.572;7.838;2024-02-16T00:58:23;10.50;99.90
14192;DHT22;7177;48.572;7.838;2024-02-16T01:00:48;10.50;99.90
14192;DHT22;7177;48.572;7.838;2024-02-16T01:03:14;10.50;99.90
14192;DHT22;7177;48.572;7.838;2024-02-16T01:05:40;10.50;99.90
14192;DHT22;7177;48.572;7.838;2024-02-16T01:08:08;10.50;99.90
14192;DHT22;7177;48.572;7.838;2024-02-16T01:10:34;10.50;99.90
14192;DHT22;7177;48.572;7.838;2024-02-16T01:12:59;10.50;99.90
14192;DHT22;7177;48.572;7.838;2024-02-16T01:15:25;10.60;99.90
14192;DHT22;7177;48.572;7.838;2024-02-16T01:17:50;10.60;99.90
14192;DHT22;7177;48.572;7.838;2024-02-16T01:20:16;10.60;99.90
14192;DHT22;7177;48.572;7.838;2024-02-16T01:22:41;10.60;99.90
14192;DHT22;7177;48.572;7.838;2024-02-16T01:25:08;10.60;99.90
14192;DHT22;7177;48.572;7.838;2024-02-16T01:27:34;10.60;99.90
14192;DHT22;7177;48.572;7.838;2024-02-16T01:30:00;10.60;99.90
14192;DHT22;7177;48.572;7.838;2024-02-16T01:32:26;10.60;99.90
14192;DHT22;7177;48.572;7.838;2024-02-16T01:34:52;10.60;99.90
14192;DHT22;7177;48.572;7.838;2024-02-16T01:37:17;10.50;99.90
14192;DHT22;7177;48.572;7.838;2024-02-16T01:39:44;10.50;99.90
14192;DHT22;7177;48.572;7.838;2024-02-16T01:42:10;10.50;99.90
14192;DHT22;7177;48.572;7.838;2024-02-16T01:44:36;10.50;99.90
14192;DHT22;7177;48.572;7.838;2024-02-16T01:47:03;10.50;99.90
14192;DHT22;7177;48.572;7.838;2024-02-16T01:49:29;10.50;99.90
14192;DHT22;7177;48.572;7.838;2024-02-16T01:51:55;10.50;99.90
14192;DHT22;7177;48.572;7.838;2024-02-16T01:54:20;10.50;99.90
14192;DHT22;7177;48.572;7.838;2024-02-16T01:56:46;10.50;99.90
14192;DHT22;7177;48.572;7.838;2024-02-16T01:59:12;10.50;99.90
14192;DHT22;7177;48.572;7.838;2024-02-16T02:01:38;10.50;99.90
14192;DHT22;7177;48.572;7.838;2024-02-16T02:04:03;10.40;99.90
14192;DHT22;7177;48.572;7.838;2024-02-16T02:06:29;10.40;99.90
14192;DHT22;7177;48.572;7.838;2024-02-16T02:08:54;10.40;99.90
14192;DHT22;7177;48.572;7.838;2024-02-16T02:11:20;10.40;99.90
14192;DHT22;7177;48.572;7.838;2024-02-16T02:13:45;10.40;99.90
14192;DHT22;7177;48.572;7.838;2024-02-16T02:16:11;10.40;99.90
14192;DHT22;7177;48.572;7.838;2024-02-16T02:18:37;10.50;99.90
14192;DHT22;7177;48.572;7.838;2024-02-16T02:21:03;10.50;99.90
14192;DHT22;7177;48.572;7.838;2024-02-16T02:23:28;10.50;99.90
14192;DHT22;7177;48.572;7.838;2024-02-16T02:25:54;10.50;99.90
14192;DHT22;7177;48.572;7.838;2024-02-16T02:28:19;10.50;99.90
14192;DHT22;7177;48.572;7.838;2024-02-16T02:30:45;10.40;99.90
14192;DHT22;7177;48.572;7.838;2024-02-16T02:33:11;10.50;99.90
14192;DHT22;7177;48.572;7.838;2024-02-16T02:35:38;10.40;99.90
14192;DHT22;7177;48.572;7.838;2024-02-16T02:38:04;10.40;99.90
14192;DHT22;7177;48.572;7.838;2024-02-16T02:40:31;10.40;99.90
14192;DHT22;7177;48.572;7.838;2024-02-16T02:42:57;10.40;99.90
14192;DHT22;7177;48.572;7.838;2024-02-16T02:45:23;10.30;99.90
14192;DHT22;7177;48.572;7.838;2024-02-16T02:47:49;10.30;99.90
14192;DHT22;7177;48.572;7.838;2024-02-16T02:50:15;10.20;99.90
14192;DHT22;7177;48.572;7.838;2024-02-16T02:52:40;10.30;99.90
14192;DHT22;7177;48.572;7.838;2024-02-16T02:55:06;10.20;99.90
14192;DHT22;7177;48.572;7.838;2024-02-16T02:57:32;10.20;99.90
14192;DHT22;7177;48.572;7.838;2024-02-16T03:00:07;10.20;99.90
14192;DHT22;7177;48.572;7.838;2024-02-16T03:02:37;10.10;99.90
14192;DHT22;7177;48.572;7.838;2024-02-16T03:05:04;10.00;99.90
14192;DHT22;7177;48.572;7.838;2024-02-16T03:07:30;9.90;99.90
14192;DHT22;7177;48.572;7.838;2024-02-16T03:09:55;9.90;99.90
14192;DHT22;7177;48.572;7.838;2024-02-16T03:12:21;9.90;99.90
14192;DHT22;7177;48.572;7.838;2024-02-16T03:14:47;9.90;99.90
14192;DHT22;7177;48.572;7.838;2024-02-16T03:17:12;10.00;99.90
14192;DHT22;7177;48.572;7.838;2024-02-16T03:19:38;10.00;99.90
14192;DHT22;7177;48.572;7.838;2024-02-16T03:22:04;10.10;99.90
14192;DHT22;7177;48.572;7.838;2024-02-16T03:24:29;10.10;99.90
14192;DHT22;7177;48.572;7.838;2024-02-16T03:26:55;10.10;99.90
14192;DHT22;7177;48.572;7.838;2024-02-16T03:29:20;10.00;99.90
14192;DHT22;7177;48.572;7.838;2024-02-16T03:31:46;10.00;99.90
14192;DHT22;7177;48.572;7.838;2024-02-16T03:34:11;10.00;99.90
14192;DHT22;7177;48.572;7.838;2024-02-16T03:36:37;10.00;99.90
14192;DHT22;7177;48.572;7.838;2024-02-16T03:39:02;10.00;99.90
14192;DHT22;7177;48.572;7.838;2024-02-16T03:41:28;10.00;99.90
14192;DHT22;7177;48.572;7.838;2024-02-16T03:43:54;10.00;99.90
14192;DHT22;7177;48.572;7.838;2024-02-16T03:46:19;10.00;99.90
14192;DHT22;7177;48.572;7.838;2024-02-16T03:48:45;9.90;99.90
14192;DHT22;7177;48.572;7.838;2024-02-16T03:51:10;9.90;99.90
14192;DHT22;7177;48.572;7.838;2024-02-16T03:53:36;9.90;99.90
14192;DHT22;7177;48.572;7.838;2024-02-16T03:56:02;9.90;99.90
14192;DHT22;7177;48.572;7.838;2024-02-16T03:58:27;9.80;99.90
14192;DHT22;7177;48.572;7.838;2024-02-16T04:00:53;9.80;99.90
14192;DHT22;7177;48.572;7.838;2024-02-16T04:03:19;9.80;99.90
14192;DHT22;7177;48.572;7.838;2024-02-16T04:05:45;9.80;99.90
14192;DHT22;7177;48.572;7.838;2024-02-16T04:08:10;9.80;99.90
14192;DHT22;7177;48.572;7.838;2024-02-16T04:10:36;9.90;99.90
14192;DHT22;7177;48.572;7.838;2024-02-16T04:13:02;9.90;99.90
14192;DHT22;7177;48.572;7.838;2024-02-16T04:15:28;9.90;99.90
14192;DHT22;7177;48.572;7.838;2024-02-16T04:17:54;9.90;99.90
14192;DHT22;7177;48.572;7.838;2024-02-16T04:20:20;9.90;99.90
14192;DHT22;7177;48.572;7.838;2024-02-16T04:22:45;9.90;99.90
14192;DHT22;7177;48.572;7.838;2024-02-16T04:25:11;9.80;99.90
14192;DHT22;7177;48.572;7.838;2024-02-16T04:27:37;9.80;99.90
14192;DHT22;7177;48.572;7.838;2024-02-16T04:30:04;9.80;99.90
14192;DHT22;7177;48.572;7.838;2024-02-16T04:32:30;9.80;99.90
14192;DHT22;7177;48.572;7.838;2024-02-16T04:34:56;9.80;99.90
14192;DHT22;7177;48.572;7.838;2024-02-16T04:37:22;9.80;99.90
14192;DHT22;7177;48.572;7.838;2024-02-16T04:39:48;9.80;99.90
14192;DHT22;7177;48.572;7.838;2024-02-16T04:42:14;9.80;99.90
14192;DHT22;7177;48.572;7.838;2024-02-16T04:44:39;9.80;99.90
14192;DHT22;7177;48.572;7.838;2024-02-16T04:47:05;9.70;99.90
14192;DHT22;7177;48.572;7.838;2024-02-16T04:49:31;9.70;99.90
14192;DHT22;7177;48.572;7.838;2024-02-16T04:51:56;9.70;99.90
14192;DHT22;7177;48.572;7.838;2024-02-16T04:54:22;9.70;99.90
14192;DHT22;7177;48.572;7.838;2024-02-16T04:56:48;9.70;99.90
14192;DHT22;7177;48.572;7.838;2024-02-16T04:59:17;9.70;99.90
14192;DHT22;7177;48.572;7.838;2024-02-16T05:01:43;9.70;99.90
14192;DHT22;7177;48.572;7.838;2024-02-16T05:04:10;9.80;99.90
14192;DHT22;7177;48.572;7.838;2024-02-16T05:06:39;9.80;99.90
14192;DHT22;7177;48.572;7.838;2024-02-16T05:09:05;10.00;99.90
14192;DHT22;7177;48.572;7.838;2024-02-16T05:11:34;10.20;99.90
14192;DHT22;7177;48.572;7.838;2024-02-16T05:14:00;10.30;99.90
14192;DHT22;7177;48.572;7.838;2024-02-16T05:16:26;10.20;99.90
14192;DHT22;7177;48.572;7.838;2024-02-16T05:18:52;10.10;99.90
14192;DHT22;7177;48.572;7.838;2024-02-16T05:21:17;10.00;99.90
14192;DHT22;7177;48.572;7.838;2024-02-16T05:23:43;9.90;99.90
14192;DHT22;7177;48.572;7.838;2024-02-16T05:26:08;9.80;99.90
14192;DHT22;7177;48.572;7.838;2024-02-16T05:28:34;9.90;99.90
14192;DHT22;7177;48.572;7.838;2024-02-16T05:31:13;9.80;99.90
14192;DHT22;7177;48.572;7.838;2024-02-16T05:33:43;9.80;99.90
14192;DHT22;7177;48.572;7.838;2024-02-16T05:36:10;9.80;99.90
14192;DHT22;7177;48.572;7.838;2024-02-16T05:38:35;9.90;99.90
14192;DHT22;7177;48.572;7.838;2024-02-16T05:41:09;9.90;99.90
14192;DHT22;7177;48.572;7.838;2024-02-16T05:43:37;9.90;99.90
14192;DHT22;7177;48.572;7.838;2024-02-16T05:46:03;9.90;99.90
14192;DHT22;7177;48.572;7.838;2024-02-16T05:48:32;9.80;99.90
14192;DHT22;7177;48.572;7.838;2024-02-16T05:51:00;9.90;99.90
14192;DHT22;7177;48.572;7.838;2024-02-16T05:53:26;9.90;99.90
14192;DHT22;7177;48.572;7.838;2024-02-16T05:55:53;9.90;99.90
14192;DHT22;7177;48.572;7.838;2024-02-16T05:58:18;9.90;99.90
14192;DHT22;7177;48.572;7.838;2024-02-16T06:00:44;9.80;99.90
14192;DHT22;7177;48.572;7.838;2024-02-16T06:03:12;9.80;99.90
14192;DHT22;7177;48.572;7.838;2024-02-16T06:05:38;9.80;99.90
14192;DHT22;7177;48.572;7.838;2024-02-16T06:08:04;9.80;99.90
14192;DHT22;7177;48.572;7.838;2024-02-16T06:10:30;9.80;99.90
14192;DHT22;7177;48.572;7.838;2024-02-16T06:12:56;9.80;99.90
14192;DHT22;7177;48.572;7.838;2024-02-16T06:15:22;9.80;99.90
14192;DHT22;7177;48.572;7.838;2024-02-16T06:17:48;9.80;99.90
14192;DHT22;7177;48.572;7.838;2024-02-16T06:20:15;9.80;99.90
14192;DHT22;7177;48.572;7.838;2024-02-16T06:22:41;9.80;99.90
14192;DHT22;7177;48.572;7.838;2024-02-16T06:25:07;9.80;99.90
14192;DHT22;7177;48.572;7.838;2024-02-16T06:27:33;9.80;99.90
14192;DHT22;7177;48.572;7.838;2024-02-16T06:29:59;9.80;99.90
14192;DHT22;7177;48.572;7.838;2024-02-16T06:32:24;9.80;99.90
14192;DHT22;7177;48.572;7.838;2024-02-16T06:34:50;9.80;99.90
14192;DHT22;7177;48.572;7.838;2024-02-16T06:37:15;9.80;99.90
14192;DHT22;7177;48.572;7.838;2024-02-16T06:39:41;9.80;99.90
14192;DHT22;7177;48.572;7.838;2024-02-16T06:42:08;9.80;99.90
14192;DHT22;7177;48.572;7.838;2024-02-16T06:44:34;9.80;99.90
14192;DHT22;7177;48.572;7.838;2024-02-16T06:46:59;9.80;99.90
14192;DHT22;7177;48.572;7.838;2024-02-16T06:49:25;9.80;99.90
14192;DHT22;7177;48.572;7.838;2024-02-16T06:51:50;9.70;99.90
14192;DHT22;7177;48.572;7.838;2024-02-16T06:54:16;9.70;99.90
14192;DHT22;7177;48.572;7.838;2024-02-16T06:56:41;9.70;99.90
14192;DHT22;7177;48.572;7.838;2024-02-16T06:59:07;9.70;99.90
14192;DHT22;7177;48.572;7.838;2024-02-16T07:01:32;9.70;99.90
14192;DHT22;7177;48.572;7.838;2024-02-16T07:03:58;9.70;99.90
14192;DHT22;7177;48.572;7.838;2024-02-16T07:06:23;9.70;99.90
14192;DHT22;7177;48.572;7.838;2024-02-16T07:08:48;9.70;99.90
14192;DHT22;7177;48.572;7.838;2024-02-16T07:11:14;9.70;99.90
14192;DHT22;7177;48.572;7.838;2024-02-16T07:13:40;9.70;99.90
14192;DHT22;7177;48.572;7.838;2024-02-16T07:16:06;9.70;99.90
14192;DHT22;7177;48.572;7.838;2024-02-16T07:18:34;9.80;99.90
14192;DHT22;7177;48.572;7.838;2024-02-16T07:21:00;9.80;99.90
14192;DHT22;7177;48.572;7.838;2024-02-16T07:23:26;9.80;99.90
14192;DHT22;7177;48.572;7.838;2024-02-16T07:25:52;9.90;99.90
14192;DHT22;7177;48.572;7.838;2024-02-16T07:28:22;9.90;99.90
14192;DHT22;7177;48.572;7.838;2024-02-16T07:30:49;10.00;99.90
14192;DHT22;7177;48.572;7.838;2024-02-16T07:33:14;10.10;99.90
14192;DHT22;7177;48.572;7.838;2024-02-16T07:35:40;10.10;99.90
14192;DHT22;7177;48.572;7.838;2024-02-16T07:38:05;10.20;99.90
14192;DHT22;7177;48.572;7.838;2024-02-16T07:40:31;10.30;99.90
14192;DHT22;7177;48.572;7.838;2024-02-16T07:42:57;10.40;99.90
14192;DHT22;7177;48.572;7.838;2024-02-16T07:45:23;10.50;99.90
14192;DHT22;7177;48.572;7.838;2024-02-16T07:47:48;10.60;99.90
14192;DHT22;7177;48.572;7.838;2024-02-16T07:50:18;10.60;99.90
14192;DHT22;7177;48.572;7.838;2024-02-16T07:52:44;10.70;99.90
14192;DHT22;7177;48.572;7.838;2024-02-16T07:55:10;10.70;99.90
14192;DHT22;7177;48.572;7.838;2024-02-16T07:57:36;10.80;99.90
14192;DHT22;7177;48.572;7.838;2024-02-16T08:00:02;10.90;99.90
14192;DHT22;7177;48.572;7.838;2024-02-16T08:02:28;11.00;99.90
14192;DHT22;7177;48.572;7.838;2024-02-16T08:04:54;11.10;99.90
14192;DHT22;7177;48.572;7.838;2024-02-16T08:07:20;11.10;99.90
14192;DHT22;7177;48.572;7.838;2024-02-16T08:09:46;11.20;99.90
14192;DHT22;7177;48.572;7.838;2024-02-16T08:12:15;11.40;99.90
14192;DHT22;7177;48.572;7.838;2024-02-16T08:14:42;11.50;99.90
14192;DHT22;7177;48.572;7.838;2024-02-16T08:17:08;11.60;99.90
14192;DHT22;7177;48.572;7.838;2024-02-16T08:19:35;11.60;99.90
14192;DHT22;7177;48.572;7.838;2024-02-16T08:22:01;11.70;99.90
14192;DHT22;7177;48.572;7.838;2024-02-16T08:24:27;11.80;99.90
14192;DHT22;7177;48.572;7.838;2024-02-16T08:26:52;11.90;99.90
14192;DHT22;7177;48.572;7.838;2024-02-16T08:29:18;11.90;99.90
14192;DHT22;7177;48.572;7.838;2024-02-16T08:31:44;11.90;99.90
14192;DHT22;7177;48.572;7.838;2024-02-16T08:34:10;12.00;99.90
14192;DHT22;7177;48.572;7.838;2024-02-16T08:36:36;12.00;99.90
14192;DHT22;7177;48.572;7.838;2024-02-16T08:39:03;12.10;99.90
14192;DHT22;7177;48.572;7.838;2024-02-16T08:41:28;12.10;99.90
14192;DHT22;7177;48.572;7.838;2024-02-16T08:43:54;12.10;99.90
14192;DHT22;7177;48.572;7.838;2024-02-16T08:46:21;12.20;99.90
14192;DHT22;7177;48.572;7.838;2024-02-16T08:48:48;12.30;99.90
14192;DHT22;7177;48.572;7.838;2024-02-16T08:51:14;12.40;99.90
14192;DHT22;7177;48.572;7.838;2024-02-16T08:53:40;12.60;99.90
14192;DHT22;7177;48.572;7.838;2024-02-16T08:56:09;12.70;99.90
14192;DHT22;7177;48.572;7.838;2024-02-16T08:58:37;13.00;99.90
14192;DHT22;7177;48.572;7.838;2024-02-16T09:01:02;13.00;99.90
14192;DHT22;7177;48.572;7.838;2024-02-16T09:03:29;13.20;99.90
14192;DHT22;7177;48.572;7.838;2024-02-16T09:05:54;13.40;99.90
14192;DHT22;7177;48.572;7.838;2024-02-16T09:08:20;13.80;99.90
14192;DHT22;7177;48.572;7.838;2024-02-16T09:10:45;14.10;99.90
14192;DHT22;7177;48.572;7.838;2024-02-16T09:13:11;14.50;99.90
14192;DHT22;7177;48.572;7.838;2024-02-16T09:15:37;14.80;99.90
14192;DHT22;7177;48.572;7.838;2024-02-16T09:18:03;15.30;99.90
14192;DHT22;7177;48.572;7.838;2024-02-16T09:20:29;15.60;99.90
14192;DHT22;7177;48.572;7.838;2024-02-16T09:22:54;15.70;99.90
14192;DHT22;7177;48.572;7.838;2024-02-16T09:25:20;15.60;99.90
14192;DHT22;7177;48.572;7.838;2024-02-16T09:27:46;15.50;99.90
14192;DHT22;7177;48.572;7.838;2024-02-16T09:30:12;15.30;99.90
14192;DHT22;7177;48.572;7.838;2024-02-16T09:32:41;15.30;99.90
14192;DHT22;7177;48.572;7.838;2024-02-16T09:35:08;15.10;99.90
14192;DHT22;7177;48.572;7.838;2024-02-16T09:37:34;15.40;99.90
14192;DHT22;7177;48.572;7.838;2024-02-16T09:39:59;15.10;99.90
14192;DHT22;7177;48.572;7.838;2024-02-16T09:42:25;15.30;99.90
14192;DHT22;7177;48.572;7.838;2024-02-16T09:44:54;15.60;99.90
14192;DHT22;7177;48.572;7.838;2024-02-16T09:47:21;16.30;99.90
14192;DHT22;7177;48.572;7.838;2024-02-16T09:49:48;16.90;99.90
14192;DHT22;7177;48.572;7.838;2024-02-16T09:52:13;17.50;99.90
14192;DHT22;7177;48.572;7.838;2024-02-16T09:54:39;17.80;99.90
14192;DHT22;7177;48.572;7.838;2024-02-16T09:57:05;17.80;99.90
14192;DHT22;7177;48.572;7.838;2024-02-16T09:59:31;17.90;99.90
14192;DHT22;7177;48.572;7.838;2024-02-16T10:02:04;18.00;99.90
14192;DHT22;7177;48.572;7.838;2024-02-16T10:04:32;18.40;99.90
14192;DHT22;7177;48.572;7.838;2024-02-16T10:06:58;18.80;99.90
14192;DHT22;7177;48.572;7.838;2024-02-16T10:09:28;19.40;99.90
14192;DHT22;7177;48.572;7.838;2024-02-16T10:11:57;19.70;99.90
14192;DHT22;7177;48.572;7.838;2024-02-16T10:14:23;19.50;99.90
14192;DHT22;7177;48.572;7.838;2024-02-16T10:17:04;19.10;99.90
14192;DHT22;7177;48.572;7.838;2024-02-16T10:19:30;18.50;99.90
14192;DHT22;7177;48.572;7.838;2024-02-16T10:22:09;18.30;99.90
14192;DHT22;7177;48.572;7.838;2024-02-16T10:24:35;18.30;99.90
14192;DHT22;7177;48.572;7.838;2024-02-16T10:27:00;18.20;99.90
14192;DHT22;7177;48.572;7.838;2024-02-16T10:29:27;18.10;99.90
14192;DHT22;7177;48.572;7.838;2024-02-16T10:31:52;18.00;99.90
14192;DHT22;7177;48.572;7.838;2024-02-16T10:34:19;18.00;99.90
14192;DHT22;7177;48.572;7.838;2024-02-16T10:36:45;18.20;99.90
14192;DHT22;7177;48.572;7.838;2024-02-16T10:39:11;18.20;99.90
14192;DHT22;7177;48.572;7.838;2024-02-16T10:41:41;18.10;99.90
14192;DHT22;7177;48.572;7.838;2024-02-16T10:44:07;18.00;99.90
14192;DHT22;7177;48.572;7.838;2024-02-16T10:46:33;18.00;99.90
14192;DHT22;7177;48.572;7.838;2024-02-16T10:48:59;18.00;99.90
14192;DHT22;7177;48.572;7.838;2024-02-16T10:51:34;18.30;99.90
14192;DHT22;7177;48.572;7.838;2024-02-16T10:54:01;18.50;99.90
14192;DHT22;7177;48.572;7.838;2024-02-16T10:56:35;18.20;99.90
14192;DHT22;7177;48.572;7.838;2024-02-16T10:59:04;17.90;99.90
14192;DHT22;7177;48.572;7.838;2024-02-16T11:01:40;17.70;99.90
14192;DHT22;7177;48.572;7.838;2024-02-16T11:04:11;17.50;99.90
14192;DHT22;7177;48.572;7.838;2024-02-16T11:06:51;17.30;99.90
14192;DHT22;7177;48.572;7.838;2024-02-16T11:09:34;17.10;99.90
14192;DHT22;7177;48.572;7.838;2024-02-16T11:12:01;16.90;99.90
14192;DHT22;7177;48.572;7.838;2024-02-16T11:14:37;16.90;99.90
14192;DHT22;7177;48.572;7.838;2024-02-16T11:17:14;16.80;99.90
14192;DHT22;7177;48.572;7.838;2024-02-16T11:19:47;16.80;99.90
14192;DHT22;7177;48.572;7.838;2024-02-16T11:22:20;16.80;99.90
14192;DHT22;7177;48.572;7.838;2024-02-16T11:24:48;16.80;99.90
14192;DHT22;7177;48.572;7.838;2024-02-16T11:27:14;16.90;99.90
14192;DHT22;7177;48.572;7.838;2024-02-16T11:29:47;16.90;99.90
14192;DHT22;7177;48.572;7.838;2024-02-16T11:32:13;17.00;99.90
14192;DHT22;7177;48.572;7.838;2024-02-16T11:34:39;17.00;99.90
14192;DHT22;7177;48.572;7.838;2024-02-16T11:37:05;17.10;99.90
14192;DHT22;7177;48.572;7.838;2024-02-16T11:39:31;17.20;99.90
14192;DHT22;7177;48.572;7.838;2024-02-16T11:42:09;17.30;99.90
14192;DHT22;7177;48.572;7.838;2024-02-16T11:44:38;17.40;99.90
14192;DHT22;7177;48.572;7.838;2024-02-16T11:47:08;17.30;99.90
14192;DHT22;7177;48.572;7.838;2024-02-16T11:49:38;17.20;99.90
14192;DHT22;7177;48.572;7.838;2024-02-16T11:52:07;17.20;99.90
14192;DHT22;7177;48.572;7.838;2024-02-16T11:54:33;17.20;99.90
14192;DHT22;7177;48.572;7.838;2024-02-16T11:56:58;17.20;99.90
14192;DHT22;7177;48.572;7.838;2024-02-16T11:59:24;17.30;99.90
14192;DHT22;7177;48.572;7.838;2024-02-16T12:01:55;17.30;99.90
14192;DHT22;7177;48.572;7.838;2024-02-16T12:04:25;17.40;99.90
14192;DHT22;7177;48.572;7.838;2024-02-16T12:06:59;17.30;99.90
14192;DHT22;7177;48.572;7.838;2024-02-16T12:09:25;17.30;99.90
14192;DHT22;7177;48.572;7.838;2024-02-16T12:11:53;17.30;99.90
14192;DHT22;7177;48.572;7.838;2024-02-16T12:14:21;17.30;99.90
14192;DHT22;7177;48.572;7.838;2024-02-16T12:16:50;17.30;99.90
14192;DHT22;7177;48.572;7.838;2024-02-16T12:19:17;17.20;99.90
14192;DHT22;7177;48.572;7.838;2024-02-16T12:21:43;17.20;99.90
14192;DHT22;7177;48.572;7.838;2024-02-16T12:24:08;17.20;99.90
14192;DHT22;7177;48.572;7.838;2024-02-16T12:26:34;17.10;99.90
14192;DHT22;7177;48.572;7.838;2024-02-16T12:28:59;17.10;99.90
14192;DHT22;7177;48.572;7.838;2024-02-16T12:31:25;17.00;99.90
14192;DHT22;7177;48.572;7.838;2024-02-16T12:33:52;17.00;99.90
14192;DHT22;7177;48.572;7.838;2024-02-16T12:36:18;17.00;99.90
14192;DHT22;7177;48.572;7.838;2024-02-16T12:38:43;17.00;99.90
14192;DHT22;7177;48.572;7.838;2024-02-16T12:41:09;17.10;99.90
14192;DHT22;7177;48.572;7.838;2024-02-16T12:43:35;17.00;99.90
14192;DHT22;7177;48.572;7.838;2024-02-16T12:46:00;17.00;99.90
14192;DHT22;7177;48.572;7.838;2024-02-16T12:48:29;16.90;99.90
14192;DHT22;7177;48.572;7.838;2024-02-16T12:50:54;16.80;99.90
14192;DHT22;7177;48.572;7.838;2024-02-16T12:53:20;16.70;99.90
14192;DHT22;7177;48.572;7.838;2024-02-16T12:55:46;16.60;99.90
14192;DHT22;7177;48.572;7.838;2024-02-16T12:58:13;16.60;99.90
14192;DHT22;7177;48.572;7.838;2024-02-16T13:00:38;16.50;99.90
14192;DHT22;7177;48.572;7.838;2024-02-16T13:03:04;16.50;99.90
14192;DHT22;7177;48.572;7.838;2024-02-16T13:05:30;16.50;99.90
14192;DHT22;7177;48.572;7.838;2024-02-16T13:07:58;16.50;99.90
14192;DHT22;7177;48.572;7.838;2024-02-16T13:10:24;16.40;99.90
14192;DHT22;7177;48.572;7.838;2024-02-16T13:12:49;16.40;99.90
14192;DHT22;7177;48.572;7.838;2024-02-16T13:15:15;16.30;99.90
14192;DHT22;7177;48.572;7.838;2024-02-16T13:17:40;16.20;99.90
14192;DHT22;7177;48.572;7.838;2024-02-16T13:20:07;16.20;99.90
14192;DHT22;7177;48.572;7.838;2024-02-16T13:22:37;16.10;99.90
14192;DHT22;7177;48.572;7.838;2024-02-16T13:25:03;16.10;99.90
14192;DHT22;7177;48.572;7.838;2024-02-16T13:27:29;16.10;99.90
14192;DHT22;7177;48.572;7.838;2024-02-16T13:29:55;16.10;99.90
14192;DHT22;7177;48.572;7.838;2024-02-16T13:32:20;16.10;99.90
14192;DHT22;7177;48.572;7.838;2024-02-16T13:34:46;16.10;99.90
14192;DHT22;7177;48.572;7.838;2024-02-16T13:37:12;16.10;99.90
14192;DHT22;7177;48.572;7.838;2024-02-16T13:39:38;16.10;99.90
14192;DHT22;7177;48.572;7.838;2024-02-16T13:42:03;16.10;99.90
14192;DHT22;7177;48.572;7.838;2024-02-16T13:44:29;16.20;99.90
14192;DHT22;7177;48.572;7.838;2024-02-16T13:46:54;16.20;99.90
14192;DHT22;7177;48.572;7.838;2024-02-16T13:49:20;16.20;99.90
14192;DHT22;7177;48.572;7.838;2024-02-16T13:51:45;16.30;99.90
14192;DHT22;7177;48.572;7.838;2024-02-16T13:54:11;16.30;99.90
14192;DHT22;7177;48.572;7.838;2024-02-16T13:56:37;16.30;99.90
14192;DHT22;7177;48.572;7.838;2024-02-16T13:59:04;16.20;99.90
14192;DHT22;7177;48.572;7.838;2024-02-16T14:01:30;16.10;99.90
14192;DHT22;7177;48.572;7.838;2024-02-16T14:03:56;16.00;99.90
14192;DHT22;7177;48.572;7.838;2024-02-16T14:06:21;15.90;99.90
14192;DHT22;7177;48.572;7.838;2024-02-16T14:08:47;15.80;99.90
14192;DHT22;7177;48.572;7.838;2024-02-16T14:11:14;15.70;99.90
14192;DHT22;7177;48.572;7.838;2024-02-16T14:13:39;15.60;99.90
14192;DHT22;7177;48.572;7.838;2024-02-16T14:16:05;15.50;99.90
14192;DHT22;7177;48.572;7.838;2024-02-16T14:18:31;15.50;99.90
14192;DHT22;7177;48.572;7.838;2024-02-16T14:20:56;15.40;99.90
14192;DHT22;7177;48.572;7.838;2024-02-16T14:23:22;15.30;99.90
14192;DHT22;7177;48.572;7.838;2024-02-16T14:25:47;15.20;99.90
14192;DHT22;7177;48.572;7.838;2024-02-16T14:28:13;15.20;99.90
14192;DHT22;7177;48.572;7.838;2024-02-16T14:30:38;15.10;99.90
14192;DHT22;7177;48.572;7.838;2024-02-16T14:33:05;15.10;99.90
14192;DHT22;7177;48.572;7.838;2024-02-16T14:35:31;15.10;99.90
14192;DHT22;7177;48.572;7.838;2024-02-16T14:37:57;15.00;99.90
14192;DHT22;7177;48.572;7.838;2024-02-16T14:40:24;15.00;99.90
14192;DHT22;7177;48.572;7.838;2024-02-16T14:42:50;14.90;99.90
14192;DHT22;7177;48.572;7.838;2024-02-16T14:45:16;14.90;99.90
14192;DHT22;7177;48.572;7.838;2024-02-16T14:47:46;14.80;99.90
14192;DHT22;7177;48.572;7.838;2024-02-16T14:50:12;14.80;99.90
14192;DHT22;7177;48.572;7.838;2024-02-16T14:52:39;14.70;99.90
14192;DHT22;7177;48.572;7.838;2024-02-16T14:55:05;14.70;99.90
14192;DHT22;7177;48.572;7.838;2024-02-16T14:57:36;14.60;99.90
14192;DHT22;7177;48.572;7.838;2024-02-16T15:00:02;14.50;99.90
14192;DHT22;7177;48.572;7.838;2024-02-16T15:02:28;14.30;99.90
14192;DHT22;7177;48.572;7.838;2024-02-16T15:04:53;14.10;99.90
14192;DHT22;7177;48.572;7.838;2024-02-16T15:07:19;13.90;99.90
14192;DHT22;7177;48.572;7.838;2024-02-16T15:09:44;13.80;99.90
14192;DHT22;7177;48.572;7.838;2024-02-16T15:12:10;13.70;99.90
14192;DHT22;7177;48.572;7.838;2024-02-16T15:14:35;13.60;99.90
14192;DHT22;7177;48.572;7.838;2024-02-16T15:17:01;13.50;99.90
14192;DHT22;7177;48.572;7.838;2024-02-16T15:19:28;13.50;99.90
14192;DHT22;7177;48.572;7.838;2024-02-16T15:21:53;13.40;99.90
14192;DHT22;7177;48.572;7.838;2024-02-16T15:24:19;13.50;99.90
14192;DHT22;7177;48.572;7.838;2024-02-16T15:26:44;13.50;99.90
14192;DHT22;7177;48.572;7.838;2024-02-16T15:29:10;13.50;99.90
14192;DHT22;7177;48.572;7.838;2024-02-16T15:31:35;14.20;99.90
14192;DHT22;7177;48.572;7.838;2024-02-16T15:34:01;13.40;99.90
14192;DHT22;7177;48.572;7.838;2024-02-16T15:36:26;13.30;99.90
14192;DHT22;7177;48.572;7.838;2024-02-16T15:38:53;13.30;99.90
14192;DHT22;7177;48.572;7.838;2024-02-16T15:41:18;13.40;99.90
14192;DHT22;7177;48.572;7.838;2024-02-16T15:43:44;13.40;99.90